Basrah, Iraq

1:11 PM AST on September 19, 2014 (GMT +0300)
Basrah International | Change Station
CLOSE
Current Station
Airport
Location: Basrah,
Elevation: 7 ft
Nearby Weather Stations

Elev 7 ft 30.52 °N, 47.78 °E | Updated 11 minutes ago

Clear
Clear
106 °F
Feels Like 106 °F
N
17
Wind Variable Wind from West

Today
High -- | Low -- °F
--% Chance of Precip.
Yesterday
High -- | Low -- °F
Precip. -- in
5:35 AM 5:49 PM
Waning Crescent, 20% visible
Pressure 29.77 in
Visibility -9999.0 miles
Clouds
Dew Point 37 °F
Humidity 10%
Rainfall 0.00 in
Snow Depth Not available.
UV Not available.
Pollen Not available.
Air Quality Not available.
Flu Activity Not available.
METAR ORMM 191000Z 28015KT CAVOK 41/03 Q1008 NOSIG

More Conditions Fewer Conditions

Pressure 29.77 in
Visibility -9999.0 miles
Clouds
Dew Point 37 °F
Humidity 10%
Rainfall 0.00 in
Snow Depth Not available.
UV Not available.
Pollen Not available.
Air Quality Not available.
Flu Activity Not available.
METAR ORMM 191000Z 28015KT CAVOK 41/03 Q1008 NOSIG

More Conditions Fewer Conditions

10-Day Weather Forecast

Almanac

Astronomy

Sep. 19, 2014 Rise Set
Actual Time 5:35 AM AST 5:49 PM AST
Civil Twilight 5:11 AM AST 6:13 PM AST
Nautical Twilight 4:43 AM AST 6:41 PM AST
Astronomical Twilight 4:14 AM AST 7:10 PM AST
Moon 1:14 AM AST 2:51 PM AST
Length of Visible Light 13h 02m
Length of Day
12h 14m
Tomorrow will be 1m 50s shorter.
Waning Crescent, 20% of the Moon is Illuminated
Today
Waning Crescent
Sep 24
New
Oct 1
First Quarter
Oct 8
Full
Oct 15
Last Quarter

Yesterday's Extremes

Country Highs Country Lows

Community

WunderPhotos

Upload Photos

1,754,583 photos uploaded!

Nearby

Snow Depth

Not available.

Earthquake Activity

City Distance Mag. Time & Date
No recent earthquake activity has been reported nearby.
Minimum magnitude displayed is 2.5.

Coastal Water Temperatures

Place Temperature
No Stations Reporting

Nearby Weather Stations